Time;durP1;ratioP1;P1;durP2;ratioP2;P2;SDS_P1;SDS_P2;PMS_P1;PMS_P2;Temp;Humidity;BMP_temperature;BMP_pressure;BME280_temperature;BME280_humidity;BME280_pressure;Samples;Min_cycle;Max_cycle;Signal;HPM_P1;HPM_P2
2022/01/09 00:00:40;;;;;;;2.47;1.80;;;;;;;0.81;100.00;99544.75;4759249;30;20104;-81
2022/01/09 00:03:07;;;;;;;2.40;2.00;;;;;;;0.79;100.00;99542.25;4759063;30;20063;-82
2022/01/09 00:05:32;;;;;;;2.35;1.90;;;;;;;0.70;100.00;99524.75;4759293;30;20387;-81
2022/01/09 00:07:58;;;;;;;2.85;2.10;;;;;;;0.64;100.00;99530.72;4757962;30;20020;-81
2022/01/09 00:10:23;;;;;;;3.15;2.20;;;;;;;0.69;100.00;99541.59;4772388;30;20037;-82
2022/01/09 00:12:49;;;;;;;3.25;2.38;;;;;;;0.70;100.00;99535.34;4743526;30;20051;-81
2022/01/09 00:15:15;;;;;;;2.50;2.30;;;;;;;0.76;100.00;99536.47;4756861;30;20072;-81
2022/01/09 00:17:41;;;;;;;3.10;2.60;;;;;;;0.70;100.00;99538.00;4755367;30;20052;-81
2022/01/09 00:20:08;;;;;;;3.72;2.40;;;;;;;0.80;100.00;99535.16;4770354;30;20033;-81
2022/01/09 00:25:00;;;;;;;3.50;1.80;;;;;;;0.72;100.00;99537.81;4756525;30;20040;-81
2022/01/09 00:27:25;;;;;;;2.40;1.80;;;;;;;0.65;100.00;99521.75;4754952;30;20037;-80
2022/01/09 00:29:50;;;;;;;3.55;1.65;;;;;;;0.65;100.00;99519.13;4752932;30;20036;-81
2022/01/09 00:32:16;;;;;;;2.40;1.80;;;;;;;0.73;100.00;99524.41;4754845;30;20133;-81
2022/01/09 00:34:41;;;;;;;2.75;1.80;;;;;;;0.72;100.00;99529.88;4753331;30;20059;-81
2022/01/09 00:37:06;;;;;;;2.25;1.60;;;;;;;0.81;100.00;99520.94;4743745;30;20074;-81
2022/01/09 00:39:32;;;;;;;3.65;1.60;;;;;;;0.72;100.00;99506.03;4753235;30;20037;-81
2022/01/09 00:41:57;;;;;;;3.92;1.60;;;;;;;0.70;100.00;99503.56;4760295;30;20033;-81
2022/01/09 00:44:23;;;;;;;2.78;1.48;;;;;;;0.67;100.00;99530.38;4751252;30;20025;-81
2022/01/09 00:46:48;;;;;;;2.00;1.30;;;;;;;0.67;100.00;99527.72;4740676;30;20024;-81
2022/01/09 00:49:13;;;;;;;1.73;1.05;;;;;;;0.36;100.00;99475.44;4753539;30;20037;-81
2022/01/09 00:51:39;;;;;;;1.40;1.20;;;;;;;0.48;100.00;99491.84;4769144;30;20464;-82
2022/01/09 00:54:04;;;;;;;1.52;1.30;;;;;;;0.67;100.00;99525.09;4751990;30;20032;-80
2022/01/09 00:56:30;;;;;;;2.28;1.30;;;;;;;0.59;100.00;99528.53;4754248;30;20025;-81
2022/01/09 00:58:55;;;;;;;1.70;1.42;;;;;;;0.62;100.00;99519.44;4765630;30;20041;-81
2022/01/09 01:01:20;;;;;;;2.03;1.20;;;;;;;0.71;100.00;99523.75;4750585;30;20041;-81
2022/01/09 01:03:46;;;;;;;2.35;1.35;;;;;;;0.77;100.00;99531.03;4740574;30;20069;-80
2022/01/09 01:06:13;;;;;;;1.20;1.10;;;;;;;0.38;100.00;99478.78;4754969;30;20040;-81
2022/01/09 01:08:38;;;;;;;3.58;1.40;;;;;;;0.84;100.00;99531.19;4738696;30;20037;-80
2022/01/09 01:11:04;;;;;;;4.43;1.35;;;;;;;0.92;100.00;99534.63;4752881;30;20067;-81
2022/01/09 01:13:29;;;;;;;2.67;1.02;;;;;;;0.84;100.00;99528.53;4736285;30;20040;-80
2022/01/09 01:15:55;;;;;;;3.03;0.95;;;;;;;0.75;100.00;99518.94;4750953;30;20514;-81
2022/01/09 01:18:20;;;;;;;2.92;1.10;;;;;;;0.90;100.00;99525.22;4754137;30;20020;-80
2022/01/09 01:20:46;;;;;;;2.22;1.02;;;;;;;0.76;100.00;99502.88;4766288;30;20148;-80
2022/01/09 01:23:11;;;;;;;3.15;1.25;;;;;;;0.96;100.00;99523.69;4753883;30;20040;-79
2022/01/09 01:25:37;;;;;;;2.05;1.30;;;;;;;0.49;100.00;99458.25;4722611;30;20033;-80
2022/01/09 01:28:02;;;;;;;4.15;1.30;;;;;;;0.91;100.00;99517.09;4739059;30;20053;-82
2022/01/09 01:30:28;;;;;;;1.50;0.90;;;;;;;0.78;100.00;99516.78;4752778;30;20420;-81
2022/01/09 01:32:53;;;;;;;4.07;1.38;;;;;;;0.85;100.00;99517.75;4739231;30;20040;-81
2022/01/09 01:35:18;;;;;;;2.80;1.35;;;;;;;0.61;100.00;99478.91;4757083;30;20035;-81
2022/01/09 01:37:44;;;;;;;2.20;1.10;;;;;;;0.69;100.00;99496.59;4762855;30;20025;-81
2022/01/09 01:40:13;;;;;;;1.20;0.82;;;;;;;0.83;100.00;99510.97;4750134;30;20029;-81
2022/01/09 01:42:39;;;;;;;2.33;1.38;;;;;;;0.68;100.00;99492.31;4755633;30;20024;-80
2022/01/09 01:45:05;;;;;;;3.53;1.20;;;;;;;0.93;100.00;99519.59;4741595;30;20049;-82
2022/01/09 01:47:30;;;;;;;4.82;1.17;;;;;;;0.78;100.00;99489.50;4766793;30;20114;-82
2022/01/09 01:49:56;;;;;;;2.63;1.15;;;;;;;0.94;100.00;99516.75;4724036;30;20025;-81
2022/01/09 01:52:29;;;;;;;1.92;1.40;;;;;;;1.00;100.00;99519.75;4754740;30;20026;-81
2022/01/09 01:54:54;;;;;;;3.53;1.40;;;;;;;1.01;100.00;99513.44;4738676;30;20037;-81
2022/01/09 01:57:20;;;;;;;2.58;1.20;;;;;;;1.04;100.00;99521.88;4738694;30;20048;-80
2022/01/09 01:59:46;;;;;;;2.20;1.40;;;;;;;0.96;100.00;99492.78;4767491;30;20100;-80
2022/01/09 02:02:11;;;;;;;2.47;1.20;;;;;;;1.01;100.00;99502.84;4767335;30;20031;-80
2022/01/09 02:04:37;;;;;;;3.72;1.35;;;;;;;1.07;100.00;99510.13;4753156;30;20517;-81
2022/01/09 02:07:03;;;;;;;2.85;1.30;;;;;;;0.97;100.00;99512.97;4754749;30;20040;-81
2022/01/09 02:09:28;;;;;;;2.70;1.50;;;;;;;0.91;100.00;99513.63;4755103;30;20032;-81
2022/01/09 02:11:54;;;;;;;3.03;1.45;;;;;;;1.04;100.00;99513.94;4752931;30;20050;-81
2022/01/09 02:14:19;;;;;;;5.28;1.60;;;;;;;0.98;100.00;99516.44;4739091;30;20029;-80
2022/01/09 02:16:47;;;;;;;1.75;1.50;;;;;;;1.02;100.00;99517.72;4752860;30;20036;-81
2022/01/09 02:19:15;;;;;;;4.13;1.83;;;;;;;0.94;100.00;99503.53;4738400;30;20037;-81
2022/01/09 02:21:42;;;;;;;2.65;1.50;;;;;;;0.93;100.00;99507.16;4752719;30;20112;-82
2022/01/09 02:24:08;;;;;;;2.47;1.77;;;;;;;0.97;100.00;99512.13;4767515;30;20539;-81
2022/01/09 02:26:33;;;;;;;3.45;1.58;;;;;;;1.03;100.00;99508.81;4752606;30;20121;-82
2022/01/09 02:28:58;;;;;;;3.28;1.83;;;;;;;0.85;100.00;99491.28;4754961;30;20114;-81
2022/01/09 02:31:24;;;;;;;4.78;1.70;;;;;;;1.01;100.00;99501.03;4738463;30;20040;-81
2022/01/09 02:33:49;;;;;;;4.20;2.03;;;;;;;0.87;100.00;99477.88;4736623;30;20096;-81
2022/01/09 02:36:15;;;;;;;7.05;2.20;;;;;;;0.98;100.00;99497.88;4736449;30;20039;-81
2022/01/09 02:38:40;;;;;;;6.82;2.33;;;;;;;0.89;100.00;99492.63;4735889;30;20040;-81
2022/01/09 02:41:05;;;;;;;6.38;2.13;;;;;;;0.74;100.00;99472.28;4720725;30;20535;-80
2022/01/09 02:43:31;;;;;;;7.43;2.45;;;;;;;0.81;100.00;99487.31;4749726;30;20040;-80
2022/01/09 02:46:15;;;;;;;7.05;2.65;;;;;;;0.83;100.00;99495.09;4749458;30;20063;-82
2022/01/09 02:48:41;;;;;;;7.15;2.83;;;;;;;0.73;100.00;99471.47;4735212;30;20044;-80
2022/01/09 02:51:17;;;;;;;11.13;2.85;;;;;;;0.91;100.00;99487.97;4750576;30;20037;-80
2022/01/09 02:53:47;;;;;;;8.43;2.90;;;;;;;0.93;100.00;99487.81;4748433;30;20032;-81
2022/01/09 02:56:12;;;;;;;4.53;3.00;;;;;;;0.76;100.00;99475.56;4747479;30;20120;-80
2022/01/09 02:58:38;;;;;;;10.88;3.60;;;;;;;0.93;100.00;99482.50;4730274;30;20102;-81
2022/01/09 03:01:06;;;;;;;8.35;3.58;;;;;;;1.06;100.00;99489.91;4755033;30;20040;-80
2022/01/09 03:03:32;;;;;;;6.88;3.15;;;;;;;0.89;100.00;99476.72;4748158;30;20028;-80
2022/01/09 03:05:57;;;;;;;8.60;3.15;;;;;;;1.01;100.00;99484.31;4750825;30;20041;-81
2022/01/09 03:08:23;;;;;;;11.32;3.53;;;;;;;0.98;100.00;99488.13;4751718;30;20029;-81
2022/01/09 03:10:48;;;;;;;7.65;3.58;;;;;;;1.08;100.00;99501.16;4750633;30;20092;-80
2022/01/09 03:13:14;;;;;;;8.02;3.72;;;;;;;1.04;100.00;99499.88;4749907;30;20043;-80
2022/01/09 03:15:40;;;;;;;10.13;3.70;;;;;;;0.99;100.00;99496.88;4753880;30;20025;-80
2022/01/09 03:18:06;;;;;;;10.38;3.78;;;;;;;0.98;100.00;99495.25;4750010;30;20028;-80
2022/01/09 03:20:31;;;;;;;9.18;3.47;;;;;;;0.85;100.00;99478.03;4750482;30;20076;-80
2022/01/09 03:22:58;;;;;;;7.43;3.20;;;;;;;1.02;100.00;99499.19;4751646;30;20052;-81
2022/01/09 03:25:25;;;;;;;8.90;3.90;;;;;;;1.04;100.00;99502.50;4751366;30;20036;-80
2022/01/09 03:27:51;;;;;;;8.00;3.13;;;;;;;0.83;100.00;99482.69;4750929;30;20072;-81
2022/01/09 03:30:19;;;;;;;8.45;4.10;;;;;;;1.01;100.00;99500.19;4733515;30;20040;-81
2022/01/09 03:32:45;;;;;;;6.97;3.70;;;;;;;1.00;100.00;99488.78;4733919;30;20080;-80
2022/01/09 03:35:14;;;;;;;6.43;3.17;;;;;;;1.06;100.00;99493.41;4733813;30;20179;-81
2022/01/09 03:37:41;;;;;;;9.50;3.63;;;;;;;0.92;100.00;99471.06;4734079;30;20098;-81
2022/01/09 03:40:10;;;;;;;5.70;3.67;;;;;;;1.13;100.00;99494.38;4745027;30;20040;-81
2022/01/09 03:42:35;;;;;;;7.93;3.35;;;;;;;0.89;100.00;99460.84;4748877;30;20024;-81
2022/01/09 03:45:01;;;;;;;13.63;5.10;;;;;;;1.12;100.00;99495.34;4748431;30;20044;-80
2022/01/09 03:47:27;;;;;;;9.68;3.30;;;;;;;0.73;100.00;99455.59;4746735;30;20041;-80
2022/01/09 03:49:52;;;;;;;8.60;3.30;;;;;;;0.84;100.00;99467.63;4747405;30;20532;-80
2022/01/09 03:52:18;;;;;;;13.25;3.72;;;;;;;0.95;100.00;99480.50;4745382;30;20036;-80
2022/01/09 03:54:44;;;;;;;7.18;3.63;;;;;;;0.76;100.00;99460.50;4744465;30;20338;-80
2022/01/09 03:57:09;;;;;;;9.48;3.75;;;;;;;0.96;100.00;99491.91;4732007;30;20053;-81
2022/01/09 03:59:35;;;;;;;8.68;3.83;;;;;;;0.92;100.00;99491.44;4747529;30;20033;-80
2022/01/09 04:02:01;;;;;;;8.50;3.80;;;;;;;1.01;100.00;99493.06;4746690;30;20076;-79
2022/01/09 04:04:27;;;;;;;7.07;3.85;;;;;;;0.54;100.00;99429.47;4760601;30;20032;-80
2022/01/09 04:06:52;;;;;;;17.08;4.22;;;;;;;0.93;100.00;99493.09;4746841;30;20432;-80
2022/01/09 04:09:28;;;;;;;9.98;3.90;;;;;;;0.88;100.00;99504.19;4753743;30;20090;-81
2022/01/09 04:12:01;;;;;;;6.85;3.15;;;;;;;0.89;100.00;99497.06;4748145;30;20032;-80
2022/01/09 04:14:27;;;;;;;15.48;4.15;;;;;;;0.73;100.00;99479.41;4746388;30;20033;-80
2022/01/09 04:16:53;;;;;;;9.75;3.95;;;;;;;0.76;100.00;99470.28;4745132;30;20043;-80
2022/01/09 04:19:18;;;;;;;10.27;4.55;;;;;;;0.95;100.00;99496.41;4745899;30;20446;-80
2022/01/09 04:21:44;;;;;;;9.35;4.40;;;;;;;1.06;100.00;99500.50;4746349;30;20036;-80
2022/01/09 04:24:10;;;;;;;10.30;3.70;;;;;;;0.94;100.00;99502.69;4745775;30;20036;-80
2022/01/09 04:26:36;;;;;;;8.02;3.63;;;;;;;0.97;100.00;99498.91;4747581;30;20036;-80
2022/01/09 04:29:01;;;;;;;9.70;4.03;;;;;;;0.83;100.00;99488.00;4745537;30;20160;-80
2022/01/09 04:31:27;;;;;;;7.13;3.53;;;;;;;0.71;100.00;99465.50;4744738;30;20043;-80
2022/01/09 04:33:52;;;;;;;7.60;3.80;;;;;;;0.89;100.00;99495.28;4744650;30;20036;-80
2022/01/09 04:36:19;;;;;;;12.43;3.95;;;;;;;0.81;100.00;99473.25;4745588;30;20067;-80
2022/01/09 04:38:44;;;;;;;6.47;3.70;;;;;;;0.92;100.00;99513.44;4743365;30;20644;-80
2022/01/09 04:41:10;;;;;;;8.30;3.42;;;;;;;1.05;100.00;99517.41;4744335;30;20116;-80
2022/01/09 04:43:35;;;;;;;13.25;3.85;;;;;;;0.86;100.00;99492.97;4755537;30;20029;-80
2022/01/09 04:46:01;;;;;;;12.23;4.10;;;;;;;0.77;100.00;99475.44;4757781;30;20067;-79
2022/01/09 04:48:26;;;;;;;9.27;3.90;;;;;;;1.04;100.00;99515.75;4729298;30;20117;-80
2022/01/09 04:50:53;;;;;;;5.97;4.07;;;;;;;0.88;100.00;99488.31;4742591;30;20037;-80
2022/01/09 04:53:19;;;;;;;11.38;3.38;;;;;;;0.91;100.00;99500.38;4741276;30;20040;-80
2022/01/09 04:55:47;;;;;;;8.95;4.10;;;;;;;1.02;100.00;99501.84;4756506;30;20075;-80
2022/01/09 04:58:13;;;;;;;7.95;3.40;;;;;;;0.89;100.00;99491.78;4754373;30;20044;-79
2022/01/09 05:00:41;;;;;;;11.65;3.55;;;;;;;0.90;100.00;99482.84;4741457;30;20035;-79
2022/01/09 05:03:07;;;;;;;9.48;3.83;;;;;;;0.81;100.00;99489.97;4741100;30;20128;-79
2022/01/09 05:05:33;;;;;;;10.10;3.85;;;;;;;0.90;100.00;99504.84;4740310;30;20435;-79
2022/01/09 05:07:59;;;;;;;10.05;3.85;;;;;;;0.93;100.00;99509.00;4737733;30;20098;-80
2022/01/09 05:10:25;;;;;;;9.05;3.88;;;;;;;1.07;100.00;99508.28;4753983;30;20040;-80
2022/01/09 05:12:51;;;;;;;9.20;4.05;;;;;;;1.08;100.00;99506.47;4753106;30;20371;-80
2022/01/09 05:15:18;;;;;;;8.88;4.50;;;;;;;1.21;100.00;99524.47;4737082;30;20021;-80
2022/01/09 05:17:44;;;;;;;11.77;4.07;;;;;;;1.14;100.00;99525.16;4741067;30;20056;-80
2022/01/09 05:20:09;;;;;;;14.43;4.45;;;;;;;1.09;100.00;99524.84;4751875;30;20070;-79
2022/01/09 05:22:36;;;;;;;13.13;4.72;;;;;;;1.05;100.00;99526.16;4739415;30;20144;-80
2022/01/09 05:25:06;;;;;;;9.00;4.00;;;;;;;1.05;100.00;99531.47;4724986;30;20037;-80
2022/01/09 05:27:32;;;;;;;9.85;4.20;;;;;;;1.06;100.00;99521.69;4740825;30;20069;-80
2022/01/09 05:29:57;;;;;;;9.45;4.82;;;;;;;0.95;100.00;99522.88;4755127;30;20044;-80
2022/01/09 05:32:23;;;;;;;10.60;4.32;;;;;;;1.09;100.00;99529.31;4741228;30;20102;-80
2022/01/09 05:34:48;;;;;;;10.27;4.20;;;;;;;0.96;100.00;99513.97;4741354;30;20071;-80
2022/01/09 05:37:14;;;;;;;10.48;4.13;;;;;;;1.04;100.00;99534.28;4750779;30;20043;-80
2022/01/09 05:39:39;;;;;;;8.90;4.50;;;;;;;0.91;100.00;99510.97;4737993;30;20056;-80
2022/01/09 05:42:07;;;;;;;12.98;4.25;;;;;;;1.07;100.00;99540.09;4736724;30;20051;-80
2022/01/09 05:44:33;;;;;;;10.15;4.05;;;;;;;1.16;100.00;99546.19;4736282;30;20041;-79
2022/01/09 05:46:59;;;;;;;10.75;4.20;;;;;;;1.06;100.00;99521.69;4749813;30;20029;-78
2022/01/09 05:49:24;;;;;;;10.38;4.13;;;;;;;1.26;100.00;99540.69;4736130;30;20043;-79
2022/01/09 05:51:50;;;;;;;11.65;4.40;;;;;;;1.18;100.00;99541.53;4737906;30;20434;-79
2022/01/09 05:54:15;;;;;;;7.43;3.92;;;;;;;1.09;100.00;99521.34;4736236;30;20121;-79
2022/01/09 05:56:41;;;;;;;8.13;3.88;;;;;;;0.87;100.00;99505.19;4736089;30;20474;-78
2022/01/09 05:59:06;;;;;;;13.82;3.90;;;;;;;1.18;100.00;99539.72;4735156;30;20051;-79
2022/01/09 06:01:31;;;;;;;8.30;3.58;;;;;;;0.98;100.00;99505.84;4720356;30;20386;-79
2022/01/09 06:03:57;;;;;;;6.10;3.35;;;;;;;1.15;100.00;99525.97;4734371;30;20059;-79
2022/01/09 06:06:22;;;;;;;10.15;3.90;;;;;;;1.06;100.00;99508.44;4729642;30;20041;-79
2022/01/09 06:08:47;;;;;;;9.35;3.60;;;;;;;1.24;100.00;99537.41;4750078;30;20396;-79
2022/01/09 06:11:13;;;;;;;10.55;3.22;;;;;;;1.20;100.00;99525.50;4748756;30;20463;-79
2022/01/09 06:13:39;;;;;;;10.27;3.47;;;;;;;1.20;100.00;99542.22;4721083;30;20051;-78
2022/01/09 06:16:05;;;;;;;9.32;3.83;;;;;;;1.18;100.00;99542.38;4736398;30;20040;-78
2022/01/09 06:18:30;;;;;;;10.93;3.20;;;;;;;1.15;100.00;99542.69;4736202;30;20041;-78
2022/01/09 06:20:56;;;;;;;8.25;3.30;;;;;;;1.16;100.00;99554.16;4735122;30;20060;-79
2022/01/09 06:23:23;;;;;;;6.55;2.95;;;;;;;1.17;100.00;99548.66;4735926;30;20044;-79
2022/01/09 06:25:51;;;;;;;6.90;2.90;;;;;;;1.18;100.00;99544.19;4735204;30;20043;-79
2022/01/09 06:28:17;;;;;;;10.80;3.25;;;;;;;1.25;100.00;99549.63;4754286;30;20505;-79
2022/01/09 06:30:44;;;;;;;8.02;2.97;;;;;;;1.21;100.00;99546.50;4737658;30;20120;-79
2022/01/09 06:33:10;;;;;;;5.68;3.05;;;;;;;1.28;100.00;99544.00;4734698;30;20032;-78
2022/01/09 06:35:36;;;;;;;7.03;2.97;;;;;;;1.31;100.00;99544.47;4735469;30;20048;-79
2022/01/09 06:38:03;;;;;;;10.85;3.15;;;;;;;1.18;100.00;99544.19;4734343;30;20439;-79
2022/01/09 06:40:28;;;;;;;7.78;3.25;;;;;;;1.27;100.00;99547.66;4748313;30;20048;-79
2022/01/09 06:42:54;;;;;;;5.93;2.65;;;;;;;1.13;100.00;99552.66;4735707;30;20452;-78
2022/01/09 06:45:21;;;;;;;8.95;3.00;;;;;;;1.00;100.00;99533.00;4748951;30;20040;-78
2022/01/09 06:47:47;;;;;;;9.00;2.70;;;;;;;1.12;100.00;99534.25;4748278;30;20036;-78
2022/01/09 06:50:14;;;;;;;6.20;3.00;;;;;;;1.24;100.00;99548.81;4735882;30;20037;-79
2022/01/09 06:52:40;;;;;;;9.70;3.75;;;;;;;1.13;100.00;99547.34;4720183;30;20048;-79
2022/01/09 06:55:07;;;;;;;8.60;2.90;;;;;;;1.16;100.00;99543.56;4734238;30;20372;-78
2022/01/09 06:57:32;;;;;;;9.25;2.90;;;;;;;1.10;100.00;99542.41;4720278;30;20364;-79
2022/01/09 06:59:57;;;;;;;8.52;3.15;;;;;;;1.26;100.00;99561.88;4732911;30;20097;-79
2022/01/09 07:02:23;;;;;;;10.40;3.30;;;;;;;1.22;100.00;99561.41;4733824;30;20040;-79
2022/01/09 07:04:48;;;;;;;7.65;2.45;;;;;;;1.16;100.00;99572.69;4727407;30;20128;-78
2022/01/09 07:07:13;;;;;;;11.13;3.50;;;;;;;1.22;100.00;99585.25;4721359;30;20105;-80
2022/01/09 07:09:40;;;;;;;7.53;2.83;;;;;;;1.17;100.00;99563.75;4748802;30;20095;-78
2022/01/09 07:12:07;;;;;;;6.40;2.90;;;;;;;1.19;100.00;99572.34;4747005;30;20131;-78
2022/01/09 07:14:32;;;;;;;10.73;3.22;;;;;;;1.29;100.00;99588.91;4735549;30;20048;-79
2022/01/09 07:16:58;;;;;;;8.20;3.60;;;;;;;1.24;100.00;99583.25;4748666;30;20380;-78
2022/01/09 07:19:23;;;;;;;14.60;6.57;;;;;;;1.40;100.00;99601.78;4735412;30;20032;-78
2022/01/09 07:21:48;;;;;;;23.00;9.20;;;;;;;1.38;100.00;99602.94;4718414;30;20048;-79
2022/01/09 07:24:14;;;;;;;9.40;5.10;;;;;;;1.40;100.00;99595.66;4746262;30;20126;-78
2022/01/09 07:26:39;;;;;;;10.18;3.80;;;;;;;1.35;100.00;99597.97;4735454;30;20466;-79
2022/01/09 07:29:05;;;;;;;8.07;3.22;;;;;;;1.02;100.00;99560.94;4750868;30;20065;-79
2022/01/09 07:31:30;;;;;;;19.85;6.65;;;;;;;1.33;100.00;99610.59;4742732;30;20064;-81
2022/01/09 07:33:55;;;;;;;11.18;3.80;;;;;;;1.35;100.00;99598.78;4744147;30;20044;-80
2022/01/09 07:36:21;;;;;;;9.82;3.65;;;;;;;1.38;100.00;99609.06;4741894;30;20101;-80
2022/01/09 07:38:46;;;;;;;8.88;4.25;;;;;;;1.33;100.00;99599.97;4752029;30;20096;-80
2022/01/09 07:41:14;;;;;;;7.47;3.25;;;;;;;1.32;100.00;99598.31;4751557;30;20047;-79
2022/01/09 07:43:40;;;;;;;7.55;3.20;;;;;;;1.41;100.00;99589.34;4745235;30;20043;-79
2022/01/09 07:46:05;;;;;;;6.97;3.47;;;;;;;1.46;100.00;99615.34;4743555;30;20028;-78
2022/01/09 07:48:31;;;;;;;5.93;3.22;;;;;;;1.54;100.00;99616.16;4720320;30;20036;-79
2022/01/09 07:50:56;;;;;;;9.45;3.40;;;;;;;1.47;100.00;99619.66;4749305;30;20092;-81
2022/01/09 07:53:23;;;;;;;12.02;4.43;;;;;;;1.62;100.00;99624.09;4749637;30;20113;-81
2022/01/09 07:55:52;;;;;;;7.22;2.97;;;;;;;1.57;100.00;99630.91;4759448;30;20013;-81
2022/01/09 07:58:19;;;;;;;9.43;3.42;;;;;;;1.59;100.00;99634.19;4730033;30;20386;-80
2022/01/09 08:00:44;;;;;;;10.20;3.65;;;;;;;1.38;100.00;99602.94;4753208;30;20075;-81
2022/01/09 08:03:11;;;;;;;10.43;3.63;;;;;;;1.49;100.00;99641.50;4750737;30;20431;-81
2022/01/09 08:05:37;;;;;;;12.45;3.53;;;;;;;1.52;100.00;99643.81;4748656;30;20033;-79
2022/01/09 08:08:02;;;;;;;9.27;3.58;;;;;;;1.34;100.00;99628.94;4722922;30;20097;-79
2022/01/09 08:10:28;;;;;;;7.15;2.60;;;;;;;1.38;100.00;99645.34;4741563;30;20032;-78
2022/01/09 08:12:53;;;;;;;8.43;3.58;;;;;;;1.38;100.00;99640.03;4741074;30;20041;-79
2022/01/09 08:15:19;;;;;;;8.20;3.50;;;;;;;1.39;100.00;99637.25;4742178;30;20033;-79
2022/01/09 08:17:49;;;;;;;9.13;3.33;;;;;;;1.49;100.00;99650.31;4745745;30;20044;-78
2022/01/09 08:20:16;;;;;;;7.68;3.42;;;;;;;1.69;100.00;99669.31;4740539;30;20040;-79
2022/01/09 08:22:42;;;;;;;8.32;3.65;;;;;;;1.68;100.00;99659.69;4737669;30;20576;-79
2022/01/09 08:25:13;;;;;;;10.57;3.60;;;;;;;1.55;100.00;99646.97;4740529;30;20619;-80
2022/01/09 08:27:38;;;;;;;8.40;3.50;;;;;;;1.58;100.00;99664.34;4750982;30;20060;-79
2022/01/09 08:30:06;;;;;;;8.85;3.42;;;;;;;1.58;100.00;99659.88;4736269;30;20036;-79
2022/01/09 08:32:31;;;;;;;6.88;3.35;;;;;;;1.64;100.00;99671.66;4752411;30;20032;-78
2022/01/09 08:34:57;;;;;;;8.88;3.58;;;;;;;1.61;100.00;99672.81;4739617;30;20036;-79
2022/01/09 08:37:22;;;;;;;7.85;3.78;;;;;;;1.73;100.00;99675.94;4751038;30;20067;-78
2022/01/09 08:39:47;;;;;;;9.35;4.05;;;;;;;1.71;100.00;99677.91;4757322;30;20036;-79
2022/01/09 08:42:13;;;;;;;12.27;4.32;;;;;;;1.69;100.00;99679.94;4738177;30;20061;-78
2022/01/09 08:44:38;;;;;;;8.73;4.13;;;;;;;1.63;100.00;99683.25;4751296;30;20036;-79
2022/01/09 08:47:05;;;;;;;9.90;3.50;;;;;;;1.59;100.00;99685.41;4738605;30;20033;-78
2022/01/09 08:49:30;;;;;;;7.20;3.75;;;;;;;1.43;100.00;99663.41;4736186;30;20064;-79
2022/01/09 08:51:55;;;;;;;13.73;3.72;;;;;;;1.30;100.00;99646.19;4737569;30;20113;-79
2022/01/09 08:54:21;;;;;;;10.70;4.00;;;;;;;1.55;100.00;99699.16;4737267;30;20036;-79
2022/01/09 08:56:46;;;;;;;9.07;4.45;;;;;;;1.52;100.00;99687.06;4740136;30;20345;-78
2022/01/09 08:59:12;;;;;;;8.55;4.13;;;;;;;1.49;100.00;99682.13;4736669;30;20460;-77
2022/01/09 09:01:38;;;;;;;9.52;4.50;;;;;;;1.65;100.00;99691.84;4736040;30;20038;-78
2022/01/09 09:04:05;;;;;;;12.68;4.75;;;;;;;1.60;100.00;99692.38;4735674;30;20032;-78
2022/01/09 09:06:31;;;;;;;9.50;3.72;;;;;;;1.39;100.00;99681.44;4734880;30;20076;-79
2022/01/09 09:08:56;;;;;;;10.90;4.30;;;;;;;1.40;100.00;99699.03;4750164;30;20040;-78
2022/01/09 09:11:21;;;;;;;7.70;3.83;;;;;;;1.40;100.00;99704.31;4760425;30;20045;-78
2022/01/09 09:13:47;;;;;;;14.27;4.70;;;;;;;1.46;100.00;99708.97;4741048;30;20075;-78
2022/01/09 09:16:12;;;;;;;9.85;4.70;;;;;;;1.31;100.00;99702.66;4749164;30;20124;-79
2022/01/09 09:18:39;;;;;;;9.38;4.60;;;;;;;1.02;100.00;99676.66;4736369;30;20044;-79
2022/01/09 09:21:09;;;;;;;9.23;4.57;;;;;;;1.21;100.00;99712.59;4738418;30;20043;-79
2022/01/09 09:23:35;;;;;;;8.27;5.13;;;;;;;1.09;100.00;99702.34;4744031;30;20119;-79
2022/01/09 09:26:01;;;;;;;12.32;5.43;;;;;;;1.21;100.00;99718.72;4747334;30;20100;-78
2022/01/09 09:28:26;;;;;;;12.23;5.47;;;;;;;1.14;100.00;99713.25;4744916;30;20098;-79
2022/01/09 09:30:51;;;;;;;13.32;5.80;;;;;;;1.14;100.00;99707.16;4744795;30;20040;-79
2022/01/09 09:33:17;;;;;;;11.50;6.43;;;;;;;1.00;100.00;99690.09;4740713;30;20121;-79
2022/01/09 09:35:42;;;;;;;11.70;6.55;;;;;;;1.26;100.00;99726.19;4738300;30;20043;-79
2022/01/09 09:38:08;;;;;;;14.32;6.15;;;;;;;0.88;100.00;99688.75;4734270;30;20049;-79
2022/01/09 09:40:33;;;;;;;14.07;6.45;;;;;;;1.12;100.00;99720.53;4736970;30;20116;-79
2022/01/09 09:42:59;;;;;;;15.30;6.65;;;;;;;0.91;100.00;99699.00;4737331;30;20124;-78
2022/01/09 09:45:25;;;;;;;17.30;5.18;;;;;;;0.97;100.00;99701.00;4737100;30;20440;-78
2022/01/09 09:47:51;;;;;;;16.63;6.38;;;;;;;0.87;100.00;99695.03;4737127;30;20329;-79
2022/01/09 09:50:17;;;;;;;8.85;5.35;;;;;;;0.85;100.00;99703.13;4741854;30;20183;-78
2022/01/09 09:52:45;;;;;;;13.45;5.30;;;;;;;1.01;100.00;99725.34;4736751;30;20039;-79
2022/01/09 09:55:11;;;;;;;12.27;7.68;;;;;;;1.18;100.00;99730.47;4737663;30;20460;-79
2022/01/09 09:57:36;;;;;;;15.35;7.32;;;;;;;0.99;100.00;99725.50;4738090;30;20040;-78
2022/01/09 10:00:09;;;;;;;12.45;6.60;;;;;;;1.03;100.00;99734.78;4750228;30;20040;-79
2022/01/09 10:02:44;;;;;;;12.82;6.90;;;;;;;0.83;100.00;99731.63;4737495;30;20037;-80
2022/01/09 10:05:11;;;;;;;11.55;5.93;;;;;;;0.80;100.00;99741.72;4737900;30;20048;-79
2022/01/09 10:07:37;;;;;;;8.98;5.88;;;;;;;0.77;100.00;99748.16;4735163;30;20036;-80
2022/01/09 10:10:18;;;;;;;14.55;7.00;;;;;;;0.77;100.00;99750.81;4741777;30;20033;-80
2022/01/09 10:12:47;;;;;;;16.77;5.88;;;;;;;0.73;100.00;99745.97;4743217;30;20032;-80
2022/01/09 10:15:17;;;;;;;11.82;6.35;;;;;;;0.81;100.00;99748.66;4754589;30;20115;-81
2022/01/09 10:17:46;;;;;;;12.55;6.00;;;;;;;0.69;100.00;99741.00;4752250;30;20028;-80
2022/01/09 10:20:11;;;;;;;12.75;6.47;;;;;;;0.85;100.00;99748.16;4740656;30;20144;-80
2022/01/09 10:22:40;;;;;;;14.52;7.07;;;;;;;0.93;100.00;99732.28;4739011;30;20155;-80
2022/01/09 10:25:20;;;;;;;11.52;6.20;;;;;;;0.95;100.00;99734.75;4740476;30;20456;-80
2022/01/09 10:27:50;;;;;;;12.38;6.68;;;;;;;1.07;100.00;99748.53;4741277;30;20193;-80
2022/01/09 10:30:17;;;;;;;15.55;6.18;;;;;;;0.88;100.00;99747.00;4737215;30;20039;-80
2022/01/09 10:32:43;;;;;;;11.88;5.78;;;;;;;1.05;100.00;99758.47;4744184;30;20066;-80
2022/01/09 10:35:17;;;;;;;11.75;6.05;;;;;;;0.87;100.00;99751.47;4740378;30;20470;-79
2022/01/09 10:37:46;;;;;;;13.40;6.30;;;;;;;0.96;100.00;99764.72;4741203;30;20037;-78
2022/01/09 10:40:22;;;;;;;10.65;6.13;;;;;;;0.88;100.00;99774.31;4743412;30;20040;-80
2022/01/09 10:43:05;;;;;;;13.27;6.15;;;;;;;0.86;100.00;99768.38;4741506;30;20032;-80
2022/01/09 10:45:31;;;;;;;13.18;6.22;;;;;;;0.84;100.00;99754.44;4739816;30;20535;-79
2022/01/09 10:48:06;;;;;;;12.77;5.75;;;;;;;0.93;100.00;99766.72;4743744;30;20043;-79
2022/01/09 10:50:36;;;;;;;11.50;5.85;;;;;;;0.82;100.00;99747.66;4756906;30;20017;-83
2022/01/09 10:53:18;;;;;;;11.00;6.18;;;;;;;0.86;100.00;99768.38;4768578;30;20065;-84
2022/01/09 10:55:45;;;;;;;9.20;6.10;;;;;;;0.98;100.00;99771.53;4751291;30;20043;-79
2022/01/09 10:58:16;;;;;;;16.45;6.25;;;;;;;0.98;100.00;99782.13;4749611;30;20063;-81
2022/01/09 11:00:41;;;;;;;10.10;5.85;;;;;;;0.88;100.00;99757.59;4748600;30;20036;-80
2022/01/09 11:03:07;;;;;;;7.97;6.00;;;;;;;0.89;100.00;99772.50;4770053;30;20048;-81
2022/01/09 11:05:35;;;;;;;15.38;6.97;;;;;;;1.11;100.00;99787.78;4723988;30;20042;-82
2022/01/09 11:08:02;;;;;;;10.23;6.00;;;;;;;1.02;100.00;99780.81;4754467;30;20032;-79
2022/01/09 11:10:28;;;;;;;11.55;5.93;;;;;;;0.91;100.00;99781.13;4753205;30;20063;-80
2022/01/09 11:12:58;;;;;;;11.00;6.78;;;;;;;0.89;100.00;99768.06;4752464;30;20036;-83
2022/01/09 11:54:19;;;;;;;9.70;6.28;;;;;;;-0.41;100.00;99625.50;4773715;30;20036;-80
2022/01/09 11:56:50;;;;;;;8.90;5.70;;;;;;;0.92;100.00;99846.31;4774799;30;20032;-83
2022/01/09 12:01:54;;;;;;;7.70;5.03;;;;;;;-0.11;100.00;99732.56;5218236;24;20273;-83
2022/01/09 12:04:35;;;;;;;10.70;6.07;;;;;;;0.52;100.00;99776.34;4777725;30;20033;-80
2022/01/09 12:07:07;;;;;;;9.23;5.82;;;;;;;-0.43;100.00;99647.78;4778025;30;20249;-81
2022/01/09 12:17:25;;;;;;;9.75;5.72;;;;;;;0.95;100.00;99856.59;5672420;24;20822;-80
2022/01/09 12:20:12;;;;;;;8.35;5.05;;;;;;;0.91;100.00;99850.81;4751521;30;20029;-82